Time;durP1;ratioP1;P1;durP2;ratioP2;P2;SDS_P1;SDS_P2;PMS_P1;PMS_P2;Temp;Humidity;BMP_temperature;BMP_pressure;BME280_temperature;BME280_humidity;BME280_pressure;Samples;Min_cycle;Max_cycle;Signal;HPM_P1;HPM_P2
2023/05/06 00:04:21;;;;;;;6.47;2.90;;;;;;;1.04;62.18;102226.41;10633029;27;20050;-74
2023/05/06 00:09:23;;;;;;;5.60;2.90;;;;;;;1.23;62.04;102217.00;10651214;27;20047;-73
2023/05/06 00:14:25;;;;;;;5.20;3.45;;;;;;;1.22;62.21;102218.00;10649123;27;20043;-74
2023/05/06 00:19:27;;;;;;;5.72;3.58;;;;;;;1.04;62.18;102215.59;10650137;28;20031;-74
2023/05/06 00:24:30;;;;;;;8.18;4.78;;;;;;;1.10;61.90;102217.59;10652551;28;20050;-74
2023/05/06 00:29:32;;;;;;;10.05;5.90;;;;;;;1.03;61.73;102224.72;10652414;28;20409;-74
2023/05/06 00:34:34;;;;;;;7.15;4.60;;;;;;;0.99;62.03;102223.41;10652348;28;20039;-74
2023/05/06 00:39:36;;;;;;;6.30;4.40;;;;;;;1.07;62.26;102231.47;10634928;28;20047;-74
2023/05/06 00:44:39;;;;;;;6.88;3.90;;;;;;;1.08;61.62;102230.44;10628439;27;20050;-75
2023/05/06 00:49:41;;;;;;;6.25;3.13;;;;;;;1.09;62.40;102241.06;10660221;27;20031;-74
2023/05/06 00:54:43;;;;;;;4.78;2.78;;;;;;;1.13;61.60;102230.72;10641542;27;20039;-74
2023/05/06 00:59:45;;;;;;;5.22;2.90;;;;;;;1.03;61.77;102236.38;10661327;27;20043;-74
2023/05/06 01:04:48;;;;;;;4.93;2.13;;;;;;;1.00;62.12;102241.28;10642865;27;20050;-75
2023/05/06 01:10:12;;;;;;;3.63;1.65;;;;;;;0.98;62.61;102243.34;10642843;27;20039;-74
2023/05/06 01:15:21;;;;;;;3.40;1.83;;;;;;;0.85;62.73;102242.06;10642862;27;20043;-74
2023/05/06 01:20:24;;;;;;;3.67;2.08;;;;;;;0.78;63.10;102242.94;10622843;27;20027;-74
2023/05/06 01:25:26;;;;;;;2.28;1.45;;;;;;;0.68;63.00;102243.16;10638681;27;20394;-74
2023/05/06 01:30:33;;;;;;;2.33;1.40;;;;;;;0.93;62.21;102243.03;10638949;27;20043;-74
2023/05/06 01:35:53;;;;;;;2.50;1.20;;;;;;;0.90;61.82;102236.13;10638611;27;20035;-74
2023/05/06 01:40:57;;;;;;;1.83;1.00;;;;;;;1.09;61.36;102240.22;10638118;27;20035;-74
2023/05/06 01:46:00;;;;;;;4.25;1.23;;;;;;;1.06;61.33;102248.72;10656917;27;20138;-73
2023/05/06 01:51:02;;;;;;;1.33;1.00;;;;;;;1.27;60.93;102246.19;10621191;27;20039;-74
2023/05/06 01:56:04;;;;;;;1.38;0.85;;;;;;;1.21;60.33;102241.47;10655469;27;20038;-73
2023/05/06 02:01:07;;;;;;;0.90;0.80;;;;;;;1.20;60.01;102253.31;10620155;27;20046;-73
2023/05/06 02:06:09;;;;;;;2.58;1.10;;;;;;;1.12;59.79;102261.50;10650961;27;20054;-73
2023/05/06 02:11:13;;;;;;;0.80;0.73;;;;;;;1.03;59.59;102258.00;10636414;27;20041;-73
2023/05/06 02:16:16;;;;;;;1.75;0.85;;;;;;;0.98;59.70;102260.41;10635889;27;20071;-74
2023/05/06 02:21:20;;;;;;;1.38;1.17;;;;;;;1.08;59.16;102254.78;10636794;27;20534;-73
2023/05/06 02:26:22;;;;;;;0.88;0.88;;;;;;;1.23;59.47;102257.53;10635728;27;20050;-73
2023/05/06 02:31:24;;;;;;;1.15;0.85;;;;;;;1.31;59.21;102255.63;10601576;27;20512;-73
2023/05/06 02:36:27;;;;;;;1.27;0.93;;;;;;;1.46;58.67;102261.91;10620052;27;20035;-74
2023/05/06 02:41:30;;;;;;;1.48;0.88;;;;;;;1.50;58.91;102255.13;10632719;27;20417;-74
2023/05/06 02:46:32;;;;;;;2.65;1.08;;;;;;;1.74;58.55;102261.34;10614174;27;20050;-74
2023/05/06 02:51:35;;;;;;;1.30;1.00;;;;;;;1.94;57.96;102269.78;10625647;27;20038;-73
2023/05/06 02:56:37;;;;;;;1.52;1.00;;;;;;;1.98;57.59;102273.81;10614681;27;20039;-73
2023/05/06 03:01:39;;;;;;;2.63;1.15;;;;;;;1.97;57.94;102275.66;10639186;27;20043;-73
2023/05/06 03:06:42;;;;;;;2.33;1.27;;;;;;;2.33;57.82;102283.09;10626247;27;20031;-74
2023/05/06 03:11:44;;;;;;;1.88;1.20;;;;;;;2.78;56.39;102292.00;10622169;27;20054;-74
2023/05/06 03:16:47;;;;;;;2.15;1.23;;;;;;;2.67;55.83;102288.78;10647258;27;20492;-74
2023/05/06 03:21:50;;;;;;;1.10;0.90;;;;;;;2.58;55.27;102298.00;10594011;27;20043;-74
2023/05/06 03:26:54;;;;;;;5.22;1.40;;;;;;;2.32;56.02;102303.91;10597316;27;20040;-74
2023/05/06 03:31:57;;;;;;;2.40;0.93;;;;;;;2.47;55.52;102306.63;10613080;27;20034;-75
2023/05/06 03:37:01;;;;;;;2.88;1.23;;;;;;;2.45;55.42;102302.44;10616349;27;20130;-75
2023/05/06 03:42:05;;;;;;;1.02;0.82;;;;;;;2.45;55.57;102314.09;10592593;27;20035;-74
2023/05/06 03:47:07;;;;;;;2.63;1.25;;;;;;;2.48;54.99;102313.72;10592143;27;20046;-74
2023/05/06 03:52:11;;;;;;;2.15;0.80;;;;;;;2.95;53.86;102313.31;10629912;27;20043;-74
2023/05/06 03:57:13;;;;;;;2.00;1.05;;;;;;;3.77;52.25;102310.22;10616187;27;20506;-74
2023/05/06 04:02:16;;;;;;;1.13;1.00;;;;;;;3.98;51.20;102311.22;10581710;27;20049;-74
2023/05/06 04:07:18;;;;;;;0.80;0.80;;;;;;;4.49;49.57;102306.34;10579177;27;20043;-74
2023/05/06 04:12:21;;;;;;;1.02;0.93;;;;;;;3.97;50.18;102321.22;10590248;28;20054;-73
2023/05/06 04:17:23;;;;;;;1.67;1.00;;;;;;;4.24;49.17;102322.28;10590752;28;20032;-74
2023/05/06 04:22:26;;;;;;;1.17;1.08;;;;;;;5.39;47.12;102318.88;10596133;27;20054;-74
2023/05/06 04:27:30;;;;;;;1.35;1.23;;;;;;;5.55;45.55;102321.19;10619720;27;20047;-74
2023/05/06 04:32:35;;;;;;;1.30;1.08;;;;;;;5.77;44.18;102323.78;10624059;27;20043;-75
2023/05/06 04:37:40;;;;;;;1.20;1.10;;;;;;;6.17;42.26;102314.56;10643132;27;20061;-75
2023/05/06 04:42:51;;;;;;;2.42;1.10;;;;;;;6.70;41.79;102309.00;10642978;27;20039;-75
2023/05/06 04:47:57;;;;;;;1.20;1.10;;;;;;;7.52;40.86;102313.69;10642680;27;20035;-76
2023/05/06 04:53:00;;;;;;;1.00;0.90;;;;;;;7.59;39.57;102310.06;10640477;27;20043;-76
2023/05/06 04:58:03;;;;;;;1.02;0.98;;;;;;;8.42;38.10;102316.13;10637714;27;20035;-75
2023/05/06 05:03:06;;;;;;;1.42;0.93;;;;;;;7.69;36.84;102313.16;10635916;27;20490;-75
2023/05/06 05:08:10;;;;;;;0.70;0.70;;;;;;;7.69;37.04;102307.69;10621539;27;20042;-75
2023/05/06 05:13:13;;;;;;;0.80;0.73;;;;;;;7.81;37.47;102301.28;10631718;27;20039;-75
2023/05/06 05:18:15;;;;;;;0.90;0.90;;;;;;;7.65;36.23;102310.03;10638699;27;20035;-75
2023/05/06 05:23:19;;;;;;;1.33;0.80;;;;;;;7.39;36.46;102321.09;10619895;27;20047;-75
2023/05/06 05:28:21;;;;;;;1.65;0.85;;;;;;;7.78;35.47;102307.16;10639235;27;20050;-75
2023/05/06 05:33:25;;;;;;;2.15;0.82;;;;;;;8.61;35.35;102326.03;10621929;27;20417;-75
2023/05/06 05:38:28;;;;;;;0.80;0.80;;;;;;;8.58;34.10;102317.44;10638516;27;20105;-73
2023/05/06 05:43:30;;;;;;;2.10;0.90;;;;;;;8.64;34.24;102314.63;10638538;27;20039;-74
2023/05/06 05:48:34;;;;;;;1.10;1.00;;;;;;;8.98;34.83;102312.31;10637470;27;20028;-74
2023/05/06 05:53:38;;;;;;;1.02;0.80;;;;;;;8.33;35.68;102320.16;10651139;27;20441;-74
2023/05/06 05:58:42;;;;;;;0.60;0.60;;;;;;;7.20;34.62;102321.00;10632466;27;20551;-74
2023/05/06 06:03:45;;;;;;;1.77;1.17;;;;;;;6.42;34.14;102330.25;10651529;27;20045;-74
2023/05/06 06:08:47;;;;;;;0.80;0.80;;;;;;;5.90;34.91;102324.66;10628568;27;20039;-74
2023/05/06 06:13:50;;;;;;;1.48;0.65;;;;;;;5.92;34.83;102333.47;10648753;27;20046;-75
2023/05/06 06:18:52;;;;;;;0.95;0.60;;;;;;;5.33;35.77;102341.47;10631906;27;20051;-74
2023/05/06 06:23:55;;;;;;;0.70;0.70;;;;;;;5.02;37.12;102347.41;10635674;27;20035;-74
2023/05/06 06:28:57;;;;;;;1.38;0.65;;;;;;;4.80;37.46;102339.38;10601377;27;20170;-74
2023/05/06 06:33:59;;;;;;;1.10;0.73;;;;;;;5.24;36.91;102340.00;10609714;27;20066;-74
2023/05/06 06:39:02;;;;;;;1.33;0.90;;;;;;;4.85;37.48;102346.91;10602418;27;20043;-76
2023/05/06 06:44:04;;;;;;;0.82;0.70;;;;;;;4.88;36.37;102360.13;10610512;27;20032;-74
2023/05/06 06:49:07;;;;;;;1.90;0.95;;;;;;;4.93;36.54;102362.25;10613023;27;20039;-76
2023/05/06 06:54:09;;;;;;;0.95;0.95;;;;;;;4.84;36.21;102362.41;10608365;27;20055;-74
2023/05/06 06:59:11;;;;;;;1.33;0.80;;;;;;;4.79;36.07;102362.16;10608157;27;20042;-74
2023/05/06 07:04:13;;;;;;;0.90;0.90;;;;;;;5.01;36.54;102357.47;10617908;27;20035;-75
2023/05/06 07:09:16;;;;;;;0.73;0.70;;;;;;;4.82;35.66;102353.59;10603878;27;20501;-75
2023/05/06 07:14:19;;;;;;;1.13;0.88;;;;;;;5.56;35.06;102355.59;10621871;27;20044;-75
2023/05/06 07:19:21;;;;;;;1.15;0.88;;;;;;;5.66;35.34;102339.66;10604948;27;20098;-74
2023/05/06 07:24:23;;;;;;;1.00;0.90;;;;;;;6.05;34.83;102357.13;10600739;27;20043;-74
2023/05/06 07:29:26;;;;;;;1.25;0.80;;;;;;;6.18;34.94;102353.56;10639106;27;20047;-77
2023/05/06 07:34:28;;;;;;;3.30;1.13;;;;;;;5.67;35.45;102348.66;10627325;27;20659;-77
2023/05/06 07:39:31;;;;;;;1.08;0.98;;;;;;;5.96;34.98;102350.22;10644217;27;20753;-75
2023/05/06 07:44:35;;;;;;;1.15;1.05;;;;;;;6.72;34.72;102345.09;10644411;27;20039;-74
2023/05/06 07:49:37;;;;;;;1.67;0.90;;;;;;;7.39;33.86;102353.88;10646756;27;20039;-76
2023/05/06 07:54:39;;;;;;;1.05;0.95;;;;;;;6.95;34.06;102350.94;10627027;27;20505;-76
2023/05/06 07:59:42;;;;;;;1.05;0.90;;;;;;;6.40;33.97;102365.09;10644382;27;20036;-76
2023/05/06 08:04:45;;;;;;;0.95;0.82;;;;;;;5.75;34.95;102371.13;10639552;27;20055;-76
2023/05/06 08:09:47;;;;;;;1.08;0.90;;;;;;;6.59;33.76;102362.31;10624635;27;20432;-76
2023/05/06 08:14:49;;;;;;;2.25;0.90;;;;;;;7.59;32.47;102361.97;10633626;27;20035;-76
2023/05/06 08:19:51;;;;;;;3.05;1.00;;;;;;;8.84;31.26;102354.59;10624809;28;20048;-76
2023/05/06 08:24:54;;;;;;;0.88;0.80;;;;;;;9.07;29.37;102357.50;10643895;27;20496;-76
2023/05/06 08:29:56;;;;;;;1.80;0.85;;;;;;;9.53;28.74;102358.78;10589745;28;20506;-76
2023/05/06 08:34:59;;;;;;;0.90;0.90;;;;;;;8.72;29.85;102358.13;10612315;28;20056;-77
2023/05/06 08:40:04;;;;;;;1.38;0.93;;;;;;;8.10;31.39;102362.66;10604426;28;20040;-77
2023/05/06 08:45:07;;;;;;;1.50;0.77;;;;;;;8.87;30.70;102359.66;10607573;28;20058;-75
2023/05/06 08:50:10;;;;;;;1.73;1.00;;;;;;;9.55;30.36;102345.72;10607803;28;20044;-74
2023/05/06 08:55:12;;;;;;;2.10;0.93;;;;;;;9.32;30.03;102350.00;10609892;28;20043;-75
2023/05/06 09:00:16;;;;;;;0.70;0.70;;;;;;;8.39;31.03;102344.75;10607953;28;20082;-75
2023/05/06 09:05:18;;;;;;;0.60;0.60;;;;;;;7.95;30.93;102355.81;10586542;28;20399;-75
2023/05/06 09:10:21;;;;;;;1.08;0.77;;;;;;;7.59;31.40;102348.28;10621201;27;20433;-76
2023/05/06 09:15:25;;;;;;;1.35;1.00;;;;;;;7.66;31.92;102357.31;10612845;27;20414;-77
2023/05/06 09:20:27;;;;;;;3.33;0.90;;;;;;;8.30;31.66;102346.06;10658802;27;20032;-77
2023/05/06 09:25:30;;;;;;;1.80;1.13;;;;;;;7.57;31.55;102356.72;10622255;27;20639;-77
2023/05/06 09:30:32;;;;;;;1.02;0.93;;;;;;;7.19;32.11;102353.97;10611761;27;20055;-77
2023/05/06 09:35:39;;;;;;;1.20;0.90;;;;;;;6.82;31.73;102344.66;10600126;27;20035;-75
2023/05/06 09:40:41;;;;;;;1.07;0.97;;;;;;;6.73;32.33;102346.78;10602403;27;20046;-75
2023/05/06 09:45:45;;;;;;;2.13;1.02;;;;;;;6.75;32.49;102346.56;10600507;27;20040;-79
2023/05/06 09:50:48;;;;;;;0.90;0.90;;;;;;;6.39;33.75;102349.78;10591075;28;20039;-74
2023/05/06 09:55:51;;;;;;;1.52;0.95;;;;;;;6.63;32.87;102346.41;10578851;27;20663;-74
2023/05/06 10:00:54;;;;;;;1.58;0.95;;;;;;;6.67;32.88;102346.81;10562221;27;20035;-74
2023/05/06 10:05:59;;;;;;;1.17;1.08;;;;;;;6.64;32.53;102348.91;10593016;27;20038;-73
2023/05/06 10:11:01;;;;;;;2.15;1.48;;;;;;;6.67;32.06;102331.28;10631442;27;20047;-72
2023/05/06 10:16:05;;;;;;;1.25;1.08;;;;;;;6.59;32.08;102342.41;10605216;27;20042;-72
2023/05/06 10:21:14;;;;;;;1.55;0.90;;;;;;;6.48;32.77;102332.16;10603394;27;20046;-74
2023/05/06 10:26:18;;;;;;;1.08;1.02;;;;;;;6.72;32.62;102341.53;10604984;27;20409;-75
2023/05/06 10:31:21;;;;;;;1.20;1.00;;;;;;;6.55;32.20;102327.50;10656019;27;20058;-74
2023/05/06 10:36:32;;;;;;;2.05;0.85;;;;;;;6.49;31.82;102320.19;10656471;27;20043;-74
2023/05/06 10:41:35;;;;;;;3.85;0.98;;;;;;;6.30;32.24;102327.34;10604254;28;20032;-74
2023/05/06 10:46:58;;;;;;;3.72;1.35;;;;;;;6.38;32.20;102310.75;10635933;27;20499;-74
2023/05/06 10:52:12;;;;;;;2.60;1.10;;;;;;;6.44;32.49;102318.13;10656426;27;20046;-74
2023/05/06 10:57:14;;;;;;;2.78;0.93;;;;;;;6.32;31.92;102298.00;10638043;27;20139;-74
2023/05/06 11:02:18;;;;;;;2.55;1.10;;;;;;;6.55;32.21;102305.69;10656142;27;20039;-74
2023/05/06 11:07:22;;;;;;;3.70;1.00;;;;;;;6.50;32.03;102298.16;10637580;27;20512;-74
2023/05/06 11:12:49;;;;;;;2.15;1.33;;;;;;;6.71;31.86;102286.13;10637307;27;20050;-74
2023/05/06 11:17:52;;;;;;;;;;;;;;;7.09;31.17;102282.63;10656054;27;20051;-74
2023/05/06 11:22:55;;;;;;;2.00;1.35;;;;;;;7.19;31.12;102283.00;10655170;27;19927;-75
2023/05/06 11:27:57;;;;;;;3.30;1.35;;;;;;;7.10;31.46;102282.38;10636440;27;20047;-75
2023/05/06 11:33:03;;;;;;;2.55;1.40;;;;;;;7.11;31.25;102284.06;10654787;27;20043;-75
2023/05/06 11:38:05;;;;;;;1.35;1.00;;;;;;;7.02;31.32;102295.47;10650043;27;20525;-74
2023/05/06 11:43:15;;;;;;;3.47;1.20;;;;;;;7.11;31.23;102286.78;10636178;27;20046;-75
2023/05/06 11:48:17;;;;;;;2.55;1.13;;;;;;;7.07;32.32;102293.75;10636012;27;20043;-75
2023/05/06 11:53:21;;;;;;;0.90;0.90;;;;;;;7.00;32.76;102290.22;10654031;27;20050;-75
2023/05/06 11:58:27;;;;;;;1.35;0.90;;;;;;;6.97;32.78;102293.41;10617987;27;20062;-75
2023/05/06 12:03:31;;;;;;;1.40;1.05;;;;;;;7.04;32.16;102287.91;10635638;27;20043;-75
2023/05/06 12:08:34;;;;;;;2.85;1.10;;;;;;;7.04;32.81;102287.91;10653754;27;20513;-75
2023/05/06 12:13:39;;;;;;;1.10;1.00;;;;;;;7.33;32.70;102287.31;10635216;27;20047;-74
2023/05/06 12:18:41;;;;;;;5.13;1.20;;;;;;;7.30;32.82;102282.31;10621505;27;20054;-74
2023/05/06 12:23:58;;;;;;;1.00;0.90;;;;;;;7.25;32.22;102290.28;10649063;28;20128;-75
2023/05/06 12:29:09;;;;;;;3.88;1.08;;;;;;;7.23;32.68;102282.31;10634348;28;20043;-75
2023/05/06 12:34:16;;;;;;;1.73;1.20;;;;;;;7.27;33.07;102282.72;10632321;28;20138;-75
2023/05/06 12:39:19;;;;;;;1.40;1.20;;;;;;;7.22;35.09;102290.75;10617551;28;20039;-75
2023/05/06 12:44:36;;;;;;;2.70;1.98;;;;;;;7.16;36.76;102281.53;10641393;27;20046;-75
2023/05/06 12:49:44;;;;;;;5.10;1.50;;;;;;;7.10;38.03;102293.31;10661413;27;20031;-75
2023/05/06 12:54:47;;;;;;;4.95;1.85;;;;;;;6.87;38.63;102276.63;10660471;27;20484;-75
2023/05/06 12:59:49;;;;;;;3.70;1.30;;;;;;;6.78;38.21;102277.94;10657919;27;20043;-74
2023/05/06 13:04:51;;;;;;;2.42;1.40;;;;;;;6.77;38.37;102288.03;10640076;27;20042;-75
2023/05/06 13:09:53;;;;;;;2.53;1.80;;;;;;;6.81;39.24;102281.06;10660458;27;20043;-75
2023/05/06 13:14:55;;;;;;;2.30;1.50;;;;;;;6.83;39.82;102281.69;10617496;28;20047;-75
2023/05/06 13:20:04;;;;;;;1.83;1.48;;;;;;;6.70;39.23;102295.38;10617074;28;20042;-75
2023/05/06 13:25:06;;;;;;;1.85;1.50;;;;;;;6.61;39.71;102310.31;10616357;28;20393;-74
2023/05/06 13:30:09;;;;;;;5.63;1.30;;;;;;;6.57;40.14;102311.78;10639594;27;20421;-74
2023/05/06 13:35:11;;;;;;;3.08;1.45;;;;;;;6.68;40.67;102316.56;10641123;27;20070;-75
2023/05/06 13:40:13;;;;;;;1.83;0.98;;;;;;;6.66;40.77;102313.22;10659729;27;20043;-75
2023/05/06 13:45:15;;;;;;;3.33;1.10;;;;;;;6.83;40.91;102308.97;10641368;27;20039;-75
2023/05/06 13:50:17;;;;;;;3.70;1.20;;;;;;;7.18;40.91;102300.44;10641228;27;20047;-74
2023/05/06 13:55:20;;;;;;;3.65;2.60;;;;;;;7.18;41.11;102298.53;10658626;27;20050;-75
2023/05/06 14:00:22;;;;;;;4.15;1.40;;;;;;;7.03;40.68;102302.59;10640766;27;20428;-75
2023/05/06 14:05:24;;;;;;;3.20;1.17;;;;;;;6.86;41.13;102296.78;10658829;27;20039;-74
2023/05/06 14:10:26;;;;;;;2.63;1.30;;;;;;;6.81;42.49;102311.09;10640287;27;20046;-75
2023/05/06 14:15:28;;;;;;;1.75;1.30;;;;;;;6.86;43.88;102304.97;10640100;27;20669;-75
2023/05/06 14:20:31;;;;;;;2.08;1.13;;;;;;;6.70;44.91;102300.84;10651158;27;20055;-74
2023/05/06 14:25:34;;;;;;;3.22;1.10;;;;;;;6.66;46.76;102299.59;10656999;27;20047;-74
2023/05/06 14:30:36;;;;;;;2.70;1.23;;;;;;;6.55;47.19;102290.16;10657603;27;20035;-74
2023/05/06 14:35:41;;;;;;;4.10;1.90;;;;;;;6.42;47.82;102278.44;10638974;27;20566;-75
2023/05/06 14:40:43;;;;;;;3.65;1.40;;;;;;;6.44;48.45;102276.38;10639178;27;20061;-75
2023/05/06 14:45:45;;;;;;;4.35;1.67;;;;;;;6.54;48.21;102272.13;10638714;27;20050;-75
2023/05/06 14:50:47;;;;;;;2.22;1.40;;;;;;;6.69;47.73;102274.59;10656832;27;20031;-75
2023/05/06 14:55:49;;;;;;;3.05;1.63;;;;;;;6.60;47.51;102270.47;10638079;27;20051;-75
2023/05/06 15:00:52;;;;;;;2.88;1.80;;;;;;;6.50;47.33;102270.06;10638144;27;20042;-74
2023/05/06 15:05:54;;;;;;;2.42;1.70;;;;;;;6.53;47.72;102269.63;10636829;27;20046;-75
2023/05/06 15:10:56;;;;;;;3.75;1.95;;;;;;;6.57;47.05;102268.13;10637306;27;20039;-74
2023/05/06 15:15:58;;;;;;;1.85;1.20;;;;;;;6.48;46.70;102283.06;10637607;27;20071;-73
2023/05/06 15:21:01;;;;;;;2.72;1.52;;;;;;;5.90;53.13;102302.00;10655969;27;20051;-73
2023/05/06 15:26:03;;;;;;;4.13;1.00;;;;;;;4.94;58.13;102318.50;10620000;27;20417;-74
2023/05/06 15:31:05;;;;;;;1.77;1.15;;;;;;;4.49;61.57;102319.94;10627676;27;20039;-75
2023/05/06 15:36:08;;;;;;;4.57;1.42;;;;;;;4.30;63.91;102315.22;10612526;28;20410;-75
2023/05/06 15:41:10;;;;;;;2.30;1.80;;;;;;;4.26;65.28;102312.06;10611894;28;20036;-75
2023/05/06 15:46:12;;;;;;;2.70;1.90;;;;;;;4.11;65.71;102312.16;10610235;28;20039;-75
2023/05/06 15:51:14;;;;;;;2.05;1.35;;;;;;;4.09;65.11;102310.69;10611565;28;20039;-74
2023/05/06 15:56:18;;;;;;;2.72;1.17;;;;;;;4.11;64.00;102320.31;10593191;28;20059;-73
2023/05/06 16:01:20;;;;;;;3.88;1.40;;;;;;;4.11;63.83;102322.19;10611372;28;20502;-75
2023/05/06 16:06:22;;;;;;;2.88;1.60;;;;;;;4.22;64.73;102318.94;10609955;28;20401;-74
2023/05/06 16:11:24;;;;;;;3.17;1.38;;;;;;;4.20;64.82;102300.13;10611103;28;20437;-74
2023/05/06 16:16:26;;;;;;;2.53;1.27;;;;;;;4.26;64.50;102298.47;10609700;28;20043;-75
2023/05/06 16:21:29;;;;;;;1.27;0.90;;;;;;;5.28;64.15;102306.72;10599354;28;20080;-75
2023/05/06 16:26:31;;;;;;;1.08;0.98;;;;;;;5.94;59.36;102301.38;10617322;28;20039;-74
2023/05/06 16:31:33;;;;;;;2.17;1.20;;;;;;;5.30;60.98;102303.78;10653018;28;20523;-75
2023/05/06 16:36:36;;;;;;;5.70;1.85;;;;;;;5.05;62.72;102312.50;10634879;28;20035;-75
2023/05/06 16:41:38;;;;;;;1.85;1.52;;;;;;;4.80;62.57;102306.72;10646412;28;20039;-74
2023/05/06 16:46:40;;;;;;;2.78;1.40;;;;;;;4.88;62.61;102311.19;10653357;28;20043;-75
2023/05/06 16:51:42;;;;;;;2.65;1.58;;;;;;;4.85;63.41;102317.00;10653078;28;20417;-74
2023/05/06 16:56:44;;;;;;;4.13;1.70;;;;;;;4.92;62.76;102317.88;10630748;28;20046;-74
2023/05/06 17:01:47;;;;;;;2.53;1.60;;;;;;;4.92;63.50;102319.75;10633496;28;20559;-74
2023/05/06 17:06:49;;;;;;;3.00;1.85;;;;;;;5.05;63.13;102325.28;10652031;28;20276;-75
2023/05/06 17:11:51;;;;;;;3.00;1.80;;;;;;;4.92;62.55;102325.19;10634973;28;20042;-74
2023/05/06 17:16:54;;;;;;;4.15;1.83;;;;;;;4.94;62.51;102337.56;10634625;28;20049;-75
2023/05/06 17:21:57;;;;;;;2.28;1.38;;;;;;;4.90;61.39;102332.72;10634346;28;20043;-75
2023/05/06 17:27:00;;;;;;;5.40;1.98;;;;;;;4.87;62.17;102328.53;10634022;27;20047;-74
2023/05/06 17:32:03;;;;;;;4.55;2.25;;;;;;;4.91;62.25;102329.81;10622074;27;20036;-74
2023/05/06 17:37:06;;;;;;;3.30;2.35;;;;;;;5.00;61.86;102335.91;10574756;28;20418;-74
2023/05/06 17:42:08;;;;;;;4.25;2.28;;;;;;;4.83;62.82;102330.81;10573309;28;20044;-74
2023/05/06 17:47:11;;;;;;;4.72;2.20;;;;;;;4.84;62.44;102335.19;10572941;28;20031;-75
2023/05/06 17:52:13;;;;;;;4.82;1.80;;;;;;;4.53;64.35;102332.97;10572521;28;20515;-75
2023/05/06 17:57:15;;;;;;;4.13;2.05;;;;;;;4.21;66.03;102333.56;10574033;28;20043;-75
2023/05/06 18:02:18;;;;;;;1.77;1.23;;;;;;;4.18;66.48;102332.09;10574020;28;20498;-75
2023/05/06 18:07:20;;;;;;;3.15;1.48;;;;;;;4.11;67.70;102341.22;10574104;28;20040;-75
2023/05/06 18:12:22;;;;;;;2.92;1.70;;;;;;;4.00;68.91;102330.91;10573454;28;20085;-74
2023/05/06 18:17:25;;;;;;;2.13;1.48;;;;;;;3.87;69.43;102337.03;10572451;28;20052;-75
2023/05/06 18:22:27;;;;;;;3.25;2.05;;;;;;;3.70;70.92;102335.63;10578094;28;20036;-75
2023/05/06 18:27:31;;;;;;;6.55;2.05;;;;;;;3.63;71.34;102335.53;10630963;27;20046;-75
2023/05/06 18:32:33;;;;;;;3.88;1.70;;;;;;;3.57;72.07;102345.31;10656915;27;20540;-75
2023/05/06 18:37:35;;;;;;;4.82;1.85;;;;;;;3.44;72.79;102341.59;10657256;27;20066;-74
2023/05/06 18:42:38;;;;;;;2.67;1.80;;;;;;;3.48;73.09;102334.78;10654171;27;20528;-74
2023/05/06 18:47:40;;;;;;;3.58;2.28;;;;;;;3.31;72.98;102335.03;10596604;28;20036;-74
2023/05/06 18:52:42;;;;;;;3.78;2.00;;;;;;;3.28;73.80;102329.97;10596619;27;20105;-75
2023/05/06 18:57:45;;;;;;;2.67;2.00;;;;;;;3.16;74.19;102334.22;10627856;27;20046;-74
2023/05/06 19:02:47;;;;;;;3.17;2.28;;;;;;;3.14;74.22;102330.88;10613611;28;20521;-74
2023/05/06 19:07:50;;;;;;;5.75;2.47;;;;;;;3.06;74.79;102327.41;10595905;28;20043;-75
2023/05/06 19:12:52;;;;;;;3.35;2.00;;;;;;;3.01;74.86;102333.41;10595648;28;20078;-75
2023/05/06 19:17:55;;;;;;;3.03;1.90;;;;;;;2.97;75.05;102329.41;10613025;28;20039;-75
2023/05/06 19:22:57;;;;;;;5.50;2.08;;;;;;;2.96;75.17;102330.44;10612465;28;20055;-75
2023/05/06 19:27:59;;;;;;;2.92;1.90;;;;;;;3.11;75.31;102330.38;10577740;28;20055;-74
2023/05/06 19:33:02;;;;;;;4.93;2.17;;;;;;;3.05;74.67;102326.56;10577219;28;20043;-75
2023/05/06 19:38:06;;;;;;;4.65;2.22;;;;;;;3.12;75.07;102329.34;10594230;28;20514;-75
2023/05/06 19:43:08;;;;;;;3.95;2.17;;;;;;;3.23;74.17;102323.44;10594204;28;20040;-75
2023/05/06 19:48:11;;;;;;;5.22;2.33;;;;;;;3.29;74.12;102326.22;10594030;28;20063;-75
2023/05/06 19:53:13;;;;;;;3.20;2.28;;;;;;;3.25;73.58;102326.78;10593390;28;20039;-75
2023/05/06 19:58:17;;;;;;;4.15;1.98;;;;;;;3.27;73.54;102322.00;10594046;28;20047;-74
2023/05/06 20:03:19;;;;;;;3.95;2.17;;;;;;;3.38;73.05;102317.97;10593843;28;20036;-74
2023/05/06 20:08:23;;;;;;;4.20;2.45;;;;;;;3.35;72.38;102316.47;10593204;28;20043;-75
2023/05/06 20:13:25;;;;;;;3.20;2.40;;;;;;;3.48;72.45;102321.22;10611248;28;20047;-75
2023/05/06 20:18:27;;;;;;;4.30;2.38;;;;;;;3.47;71.87;102320.38;10609912;28;20039;-75
2023/05/06 20:23:30;;;;;;;2.38;2.00;;;;;;;3.62;72.00;102318.41;10645476;27;20039;-76
2023/05/06 20:28:33;;;;;;;3.38;2.20;;;;;;;3.64;71.54;102312.78;10631987;28;20047;-75
2023/05/06 20:33:36;;;;;;;3.10;2.08;;;;;;;3.70;71.06;102320.19;10617998;28;20050;-75
2023/05/06 20:38:38;;;;;;;4.53;2.13;;;;;;;3.68;71.46;102319.53;10618238;28;20497;-75
2023/05/06 20:43:42;;;;;;;3.10;2.30;;;;;;;3.76;71.14;102313.13;10652967;28;20047;-74
2023/05/06 20:48:45;;;;;;;5.32;2.28;;;;;;;3.74;71.14;102318.75;10628025;28;20042;-73
2023/05/06 20:53:47;;;;;;;4.05;2.13;;;;;;;3.79;70.68;102313.56;10651463;27;20512;-74
2023/05/06 20:58:54;;;;;;;3.58;2.38;;;;;;;3.76;70.98;102318.53;10624562;28;20035;-75
2023/05/06 21:03:57;;;;;;;5.00;2.30;;;;;;;3.75;71.49;102316.88;10653742;27;20039;-75
2023/05/06 21:08:59;;;;;;;4.15;2.50;;;;;;;3.68;71.24;102315.97;10653213;27;20047;-74
2023/05/06 21:14:02;;;;;;;3.00;2.40;;;;;;;3.66;71.83;102318.06;10652297;27;20036;-74
2023/05/06 21:19:04;;;;;;;5.13;2.38;;;;;;;3.65;72.25;102328.06;10623899;27;20039;-75
2023/05/06 21:24:06;;;;;;;5.03;2.33;;;;;;;3.57;72.16;102333.63;10624611;27;20035;-75
2023/05/06 21:29:09;;;;;;;3.47;2.28;;;;;;;3.44;72.50;102330.75;10645420;27;20058;-75
2023/05/06 21:34:11;;;;;;;5.20;2.13;;;;;;;3.32;73.55;102333.16;10659397;27;20050;-73
2023/05/06 21:39:13;;;;;;;2.72;2.05;;;;;;;3.25;74.00;102324.91;10652747;27;20047;-74
2023/05/06 21:44:16;;;;;;;2.92;1.60;;;;;;;3.18;73.83;102326.72;10658988;27;20505;-75
2023/05/06 21:49:20;;;;;;;3.22;1.40;;;;;;;3.19;74.21;102327.56;10623944;27;20036;-76
2023/05/06 21:54:23;;;;;;;2.42;1.70;;;;;;;3.04;74.89;102330.31;10653604;27;20511;-75
2023/05/06 21:59:26;;;;;;;2.92;1.70;;;;;;;2.91;74.76;102330.13;10653252;27;20062;-76
2023/05/06 22:04:28;;;;;;;2.83;1.90;;;;;;;2.82;75.44;102325.88;10657793;27;20038;-77
2023/05/06 22:09:30;;;;;;;2.47;1.67;;;;;;;2.76;75.65;102324.72;10638060;27;20382;-78
2023/05/06 22:14:33;;;;;;;2.20;1.48;;;;;;;2.69;76.30;102321.94;10638913;27;20039;-76
2023/05/06 22:19:40;;;;;;;1.90;1.58;;;;;;;2.66;76.04;102335.88;10635135;27;20035;-76
2023/05/06 22:24:42;;;;;;;2.08;1.80;;;;;;;2.60;75.93;102327.63;10619030;27;20537;-75
2023/05/06 22:29:45;;;;;;;5.18;1.63;;;;;;;2.52;76.41;102328.56;10632671;27;20038;-77
2023/05/06 22:34:47;;;;;;;2.50;1.63;;;;;;;2.50;76.65;102332.50;10636247;27;20047;-77
2023/05/06 22:39:51;;;;;;;3.33;1.60;;;;;;;2.44;76.59;102327.84;10619164;27;20039;-76
2023/05/06 22:44:53;;;;;;;2.40;1.67;;;;;;;2.35;77.12;102330.63;10651559;27;20066;-77
2023/05/06 22:49:59;;;;;;;2.15;1.33;;;;;;;2.27;77.20;102330.72;10656796;27;20035;-77
2023/05/06 22:55:04;;;;;;;2.85;1.50;;;;;;;2.24;77.64;102332.94;10657447;27;20039;-77
2023/05/06 23:00:07;;;;;;;2.60;2.00;;;;;;;2.17;78.17;102342.84;10656360;27;20039;-76
2023/05/06 23:05:10;;;;;;;2.95;1.60;;;;;;;2.09;78.19;102343.75;10656444;27;20039;-78
2023/05/06 23:10:12;;;;;;;4.82;1.80;;;;;;;2.11;78.60;102341.72;10651368;27;20047;-77
2023/05/06 23:15:14;;;;;;;2.00;1.60;;;;;;;2.07;78.81;102343.91;10630899;27;20810;-78
2023/05/06 23:20:16;;;;;;;5.28;1.42;;;;;;;2.02;78.65;102340.09;10653569;27;20043;-78
2023/05/06 23:25:19;;;;;;;4.55;1.90;;;;;;;1.98;79.08;102345.03;10620143;27;20034;-77
2023/05/06 23:30:24;;;;;;;4.28;2.10;;;;;;;1.87;79.18;102347.31;10636531;27;20051;-76